createdAt,value
2018-11-03T00:00:03.383Z,33.84
2018-11-03T00:01:03.362Z,34.14
2018-11-03T00:02:03.337Z,33.84
2018-11-03T00:03:03.325Z,33.84
2018-11-03T00:04:03.316Z,33.84
2018-11-03T00:05:03.537Z,33.86
2018-11-03T00:06:04.025Z,34.05
2018-11-03T00:07:03.285Z,34.05
2018-11-03T00:08:03.269Z,34.05
2018-11-03T00:09:03.259Z,33.84
2018-11-03T00:10:03.268Z,33.95
2018-11-03T00:11:04.028Z,34.05
2018-11-03T00:12:03.224Z,33.95
2018-11-03T00:13:03.217Z,33.84
2018-11-03T00:14:03.208Z,33.84
2018-11-03T00:15:03.528Z,34.14
2018-11-03T00:16:04.025Z,34.14
2018-11-03T00:17:04.017Z,33.95
2018-11-03T00:18:03.173Z,33.86
2018-11-03T00:19:04.043Z,33.95
2018-11-03T00:20:03.160Z,33.84
2018-11-03T00:21:04.035Z,34.14
2018-11-03T00:22:03.166Z,34.14
2018-11-03T00:23:04.030Z,33.75
2018-11-03T00:24:03.097Z,34.05
2018-11-03T00:25:03.101Z,34.14
2018-11-03T00:26:04.027Z,33.84
2018-11-03T00:27:03.074Z,33.84
2018-11-03T00:28:04.018Z,34.05
2018-11-03T00:29:03.101Z,33.75
2018-11-03T00:30:03.066Z,33.86
2018-11-03T00:31:03.033Z,33.86
2018-11-03T00:32:03.013Z,34.14
2018-11-03T00:33:03.524Z,33.76
2018-11-03T00:34:03.516Z,34.16
2018-11-03T00:35:03.023Z,33.96
2018-11-03T00:36:02.982Z,33.75
2018-11-03T00:37:02.955Z,33.95
2018-11-03T00:38:03.518Z,34.14
2018-11-03T00:39:03.541Z,34.14
2018-11-03T00:40:02.959Z,33.95
2018-11-03T00:41:02.911Z,34.14
2018-11-03T00:42:02.906Z,34.05
2018-11-03T00:43:02.893Z,34.05
2018-11-03T00:44:03.524Z,33.75
2018-11-03T00:45:02.901Z,33.75
2018-11-03T00:46:02.878Z,33.84
2018-11-03T00:47:02.845Z,33.95
2018-11-03T00:48:02.834Z,34.05
2018-11-03T00:49:03.545Z,33.95
2018-11-03T00:50:02.836Z,34.05
2018-11-03T00:51:02.816Z,34.14
2018-11-03T00:52:02.792Z,34.06
2018-11-03T00:53:02.827Z,34.06
2018-11-03T00:54:02.772Z,34.05
2018-11-03T00:55:02.821Z,34.06
2018-11-03T00:56:02.747Z,34.16
2018-11-03T00:57:02.752Z,34.05
2018-11-03T00:58:02.729Z,33.95
2018-11-03T00:59:02.715Z,34.05
2018-11-03T01:00:02.759Z,33.96
2018-11-03T01:01:02.698Z,34.14
2018-11-03T01:02:03.517Z,33.95
2018-11-03T01:03:03.519Z,33.75
2018-11-03T01:04:03.535Z,34.06
2018-11-03T01:05:02.674Z,33.95
2018-11-03T01:06:02.664Z,33.95
2018-11-03T01:07:03.523Z,33.95
2018-11-03T01:08:03.514Z,33.95
2018-11-03T01:09:03.520Z,33.96
2018-11-03T01:10:03.035Z,33.95
2018-11-03T01:11:02.595Z,33.96
2018-11-03T01:12:02.571Z,34.14
2018-11-03T01:13:02.571Z,34.36
2018-11-03T01:14:02.571Z,33.95
2018-11-03T01:15:03.033Z,34.36
2018-11-03T01:16:02.570Z,34.64
2018-11-03T01:17:02.522Z,34.36
2018-11-03T01:18:02.510Z,33.95
2018-11-03T01:19:02.502Z,33.95
2018-11-03T01:20:02.545Z,33.95
2018-11-03T01:21:02.488Z,33.95
2018-11-03T01:22:02.469Z,34.16
2018-11-03T01:23:02.461Z,33.76
2018-11-03T01:24:02.446Z,33.84
2018-11-03T01:25:02.451Z,34.05
2018-11-03T01:26:03.027Z,33.76
2018-11-03T01:27:02.428Z,33.84
2018-11-03T01:28:02.406Z,34.66
2018-11-03T01:29:02.392Z,33.84
2018-11-03T01:30:02.395Z,33.96
2018-11-03T01:31:02.403Z,34.06
2018-11-03T01:32:02.359Z,33.96
2018-11-03T01:33:02.345Z,34.05
2018-11-03T01:34:02.342Z,33.84
2018-11-03T01:35:02.508Z,33.75
2018-11-03T01:36:02.329Z,34.16
2018-11-03T01:37:02.352Z,34.05
2018-11-03T01:38:02.294Z,34.05
2018-11-03T01:39:02.285Z,33.95
2018-11-03T01:40:02.319Z,34.05
2018-11-03T01:41:02.273Z,33.36
2018-11-03T01:42:02.263Z,33.96
2018-11-03T01:43:02.263Z,34.06
2018-11-03T01:44:02.258Z,33.36
2018-11-03T01:45:02.240Z,34.06
2018-11-03T01:46:02.222Z,33.86
2018-11-03T01:47:02.200Z,33.75
2018-11-03T01:48:02.195Z,33.95
2018-11-03T01:49:02.183Z,33.86
2018-11-03T01:50:02.197Z,33.96
2018-11-03T01:51:02.169Z,33.95
2018-11-03T01:52:02.143Z,34.06
2018-11-03T01:53:02.132Z,34.06
2018-11-03T01:54:03.053Z,33.35
2018-11-03T01:55:02.110Z,33.76
2018-11-03T01:56:02.184Z,33.76
2018-11-03T01:57:02.091Z,33.54
2018-11-03T01:58:03.023Z,33.76
2018-11-03T01:59:02.066Z,33.66
2018-11-03T02:00:02.060Z,34.16
2018-11-03T02:01:02.073Z,33.96
2018-11-03T02:02:03.033Z,33.54
2018-11-03T02:03:02.030Z,33.65
2018-11-03T02:04:02.526Z,33.65
2018-11-03T02:05:02.009Z,33.96
2018-11-03T02:06:02.017Z,33.26
2018-11-03T02:07:02.005Z,33.47
2018-11-03T02:08:02.524Z,33.45
2018-11-03T02:09:01.972Z,33.47
2018-11-03T02:10:02.540Z,33.56
2018-11-03T02:11:01.959Z,33.56
2018-11-03T02:12:02.529Z,33.65
2018-11-03T02:13:01.933Z,33.45
2018-11-03T02:14:01.922Z,33.47
2018-11-03T02:15:01.895Z,33.45
2018-11-03T02:16:01.907Z,33.45
2018-11-03T02:17:01.887Z,34.36
2018-11-03T02:18:01.868Z,33.66
2018-11-03T02:19:01.853Z,33.47
2018-11-03T02:20:01.845Z,33.45
2018-11-03T02:21:01.895Z,33.45
2018-11-03T02:22:02.548Z,33.25
2018-11-03T02:23:01.831Z,33.54
2018-11-03T02:24:01.819Z,33.35
2018-11-03T02:25:01.794Z,33.45
2018-11-03T02:26:01.793Z,33.35
2018-11-03T02:27:01.789Z,33.25
2018-11-03T02:28:02.527Z,33.35
2018-11-03T02:29:01.779Z,33.36
2018-11-03T02:30:01.731Z,33.26
2018-11-03T02:31:02.060Z,33.35
2018-11-03T02:32:01.755Z,33.47
2018-11-03T02:33:01.705Z,33.47
2018-11-03T02:34:01.702Z,33.54
2018-11-03T02:35:02.526Z,33.04
2018-11-03T02:36:02.042Z,33.25
2018-11-03T02:37:02.531Z,33.56
2018-11-03T02:38:01.645Z,33.06
2018-11-03T02:39:01.670Z,33.45
2018-11-03T02:40:01.634Z,33.54
2018-11-03T02:41:01.667Z,33.54
2018-11-03T02:42:01.653Z,33.35
2018-11-03T02:43:01.589Z,33.26
2018-11-03T02:44:01.582Z,33.35
2018-11-03T02:45:02.522Z,33.16
2018-11-03T02:46:02.037Z,33.66
2018-11-03T02:47:01.567Z,33.25
2018-11-03T02:48:01.575Z,33.47
2018-11-03T02:49:01.553Z,33.66
2018-11-03T02:50:01.515Z,33.47
2018-11-03T02:51:01.522Z,33.86
2018-11-03T02:52:01.523Z,33.86
2018-11-03T02:53:01.480Z,33.84
2018-11-03T02:54:01.470Z,33.86
2018-11-03T02:55:01.463Z,33.96
2018-11-03T02:56:01.487Z,33.86
2018-11-03T02:57:01.450Z,33.75
2018-11-03T02:58:01.502Z,33.76
2018-11-03T02:59:01.416Z,33.86
2018-11-03T03:00:01.410Z,33.96
2018-11-03T03:01:01.421Z,33.65
2018-11-03T03:02:01.385Z,33.65
2018-11-03T03:03:02.040Z,33.76
2018-11-03T03:04:01.363Z,33.76
2018-11-03T03:05:01.353Z,33.76
2018-11-03T03:06:01.539Z,33.56
2018-11-03T03:07:01.329Z,33.56
2018-11-03T03:08:02.065Z,33.56
2018-11-03T03:09:01.333Z,33.86
2018-11-03T03:10:02.050Z,33.76
2018-11-03T03:11:01.326Z,33.56
2018-11-03T03:12:01.277Z,34.16
2018-11-03T03:13:02.029Z,33.56
2018-11-03T03:14:01.261Z,34.06
2018-11-03T03:15:02.025Z,33.47
2018-11-03T03:16:01.545Z,33.66
2018-11-03T03:17:01.219Z,33.66
2018-11-03T03:18:01.233Z,33.56
2018-11-03T03:19:01.203Z,33.47
2018-11-03T03:20:02.028Z,33.47
2018-11-03T03:21:01.207Z,33.47
2018-11-03T03:22:01.165Z,33.66
2018-11-03T03:23:02.066Z,33.76
2018-11-03T03:24:01.147Z,33.66
2018-11-03T03:25:01.149Z,34.16
2018-11-03T03:26:01.147Z,33.66
2018-11-03T03:27:01.116Z,34.16
2018-11-03T03:28:01.184Z,33.56
2018-11-03T03:29:01.275Z,33.56
2018-11-03T03:30:01.090Z,34.16
2018-11-03T03:31:01.540Z,33.76
2018-11-03T03:32:01.073Z,33.56
2018-11-03T03:33:02.302Z,32.97
2018-11-03T03:34:01.034Z,34.06
2018-11-03T03:35:01.027Z,33.47
2018-11-03T03:36:01.035Z,33.47
2018-11-03T03:37:01.004Z,33.47
2018-11-03T03:38:01.526Z,34.16
2018-11-03T03:39:01.013Z,34.06
2018-11-03T03:40:01.530Z,32.97
2018-11-03T03:41:00.980Z,33.47
2018-11-03T03:42:00.947Z,33.86
2018-11-03T03:43:00.940Z,33.47
2018-11-03T03:44:00.936Z,33.96
2018-11-03T03:45:00.961Z,34.06
2018-11-03T03:46:01.019Z,34.06
2018-11-03T03:47:00.896Z,33.96
2018-11-03T03:48:00.882Z,33.47
2018-11-03T03:49:00.934Z,32.97
2018-11-03T03:50:00.859Z,33.86
2018-11-03T03:51:00.886Z,33.86
2018-11-03T03:52:00.851Z,33.06
2018-11-03T03:53:00.832Z,32.97
2018-11-03T03:54:00.822Z,33.66
2018-11-03T03:55:01.544Z,33.16
2018-11-03T03:56:00.807Z,32.86
2018-11-03T03:57:01.053Z,32.97
2018-11-03T03:58:00.773Z,33.16
2018-11-03T03:59:00.764Z,33.06
2018-11-03T04:00:00.772Z,33.26
2018-11-03T04:01:00.755Z,33.06
2018-11-03T04:02:00.812Z,33.06
2018-11-03T04:03:00.722Z,32.86
2018-11-03T04:04:00.770Z,33.06
2018-11-03T04:05:01.528Z,32.86
2018-11-03T04:06:00.701Z,33.66
2018-11-03T04:07:00.701Z,34.06
2018-11-03T04:08:00.664Z,32.97
2018-11-03T04:09:00.665Z,32.97
2018-11-03T04:10:00.642Z,33.06
2018-11-03T04:11:00.635Z,32.86
2018-11-03T04:12:00.645Z,33.96
2018-11-03T04:13:00.610Z,32.97
2018-11-03T04:14:00.622Z,33.06
2018-11-03T04:15:00.625Z,33.26
2018-11-03T04:16:00.581Z,33.06
2018-11-03T04:17:00.593Z,33.06
2018-11-03T04:18:01.528Z,33.16
2018-11-03T04:19:00.556Z,32.86
2018-11-03T04:20:00.536Z,33.26
2018-11-03T04:21:00.528Z,32.97
2018-11-03T04:22:00.549Z,32.97
2018-11-03T04:23:01.038Z,33.06
2018-11-03T04:24:00.780Z,32.76
2018-11-03T04:25:01.044Z,32.86
2018-11-03T04:26:00.531Z,33.06
2018-11-03T04:27:00.514Z,33.96
2018-11-03T04:28:01.033Z,33.16
2018-11-03T04:29:00.474Z,33.65
2018-11-03T04:30:00.466Z,33.25
2018-11-03T04:31:00.416Z,33.36
2018-11-03T04:32:00.419Z,33.47
2018-11-03T04:33:00.393Z,33.06
2018-11-03T04:34:01.042Z,32.75
2018-11-03T04:35:00.386Z,33.04
2018-11-03T04:36:00.356Z,32.95
2018-11-03T04:37:00.548Z,33.04
2018-11-03T04:38:00.339Z,33.35
2018-11-03T04:39:01.076Z,34.05
2018-11-03T04:40:00.315Z,33.65
2018-11-03T04:41:00.303Z,33.54
2018-11-03T04:42:00.430Z,33.25
2018-11-03T04:43:00.282Z,33.25
2018-11-03T04:44:00.270Z,33.04
2018-11-03T04:45:00.287Z,32.95
2018-11-03T04:46:00.250Z,32.75
2018-11-03T04:47:00.265Z,32.63
2018-11-03T04:48:00.310Z,33.33
2018-11-03T04:49:00.213Z,33.03
2018-11-03T04:50:01.062Z,32.63
2018-11-03T04:51:00.196Z,33.23
2018-11-03T04:52:00.213Z,32.73
2018-11-03T04:53:00.192Z,32.73
2018-11-03T04:54:01.030Z,32.63
2018-11-03T04:55:00.162Z,33.23
2018-11-03T04:56:01.042Z,33.03
2018-11-03T04:57:00.545Z,33.03
2018-11-03T04:58:00.142Z,33.03
2018-11-03T04:59:01.030Z,33.33
2018-11-03T05:00:00.141Z,33.23
2018-11-03T05:01:01.031Z,33.33
2018-11-03T05:02:00.261Z,33.13
2018-11-03T05:03:00.062Z,33.33
2018-11-03T05:04:00.063Z,33.33
2018-11-03T05:05:00.043Z,33.03
2018-11-03T05:06:00.184Z,33.01
2018-11-03T05:07:00.044Z,33.22
2018-11-03T05:08:00.563Z,32.52
2018-11-03T05:09:00.538Z,33.31
2018-11-03T05:10:00.625Z,32.92
2018-11-03T05:10:59.984Z,32.71
2018-11-03T05:11:59.986Z,33.22
2018-11-03T05:13:00.531Z,32.71
2018-11-03T05:13:59.936Z,33.42
2018-11-03T05:15:00.540Z,33.01
2018-11-03T05:15:59.925Z,32.92
2018-11-03T05:16:59.910Z,33.01
2018-11-03T05:17:59.889Z,33.03
2018-11-03T05:18:59.892Z,33.12
2018-11-03T05:19:59.863Z,32.82
2018-11-03T05:20:59.888Z,33.12
2018-11-03T05:21:59.876Z,32.82
2018-11-03T05:22:59.835Z,33.03
2018-11-03T05:24:00.538Z,33.01
2018-11-03T05:24:59.809Z,32.73
2018-11-03T05:25:59.826Z,32.73
2018-11-03T05:26:59.810Z,32.93
2018-11-03T05:27:59.789Z,33.13
2018-11-03T05:29:00.566Z,33.53
2018-11-03T05:30:00.563Z,33.13
2018-11-03T05:31:00.620Z,33.13
2018-11-03T05:31:59.748Z,32.93
2018-11-03T05:32:59.721Z,32.63
2018-11-03T05:33:59.725Z,32.73
2018-11-03T05:34:59.699Z,33.33
2018-11-03T05:35:59.729Z,33.43
2018-11-03T05:37:00.047Z,32.93
2018-11-03T05:37:59.670Z,32.83
2018-11-03T05:38:59.826Z,32.83
2018-11-03T05:39:59.646Z,32.83
2018-11-03T05:41:00.558Z,33.03
2018-11-03T05:41:59.643Z,33.23
2018-11-03T05:42:59.611Z,33.63
2018-11-03T05:43:59.612Z,33.53
2018-11-03T05:44:59.584Z,33.33
2018-11-03T05:45:59.766Z,33.53
2018-11-03T05:46:59.742Z,33.43
2018-11-03T05:48:00.540Z,33.53
2018-11-03T05:48:59.549Z,33.43
2018-11-03T05:49:59.536Z,33.93
2018-11-03T05:50:59.525Z,33.53
2018-11-03T05:51:59.528Z,33.03
2018-11-03T05:53:00.071Z,33.03
2018-11-03T05:53:59.487Z,33.04
2018-11-03T05:54:59.482Z,32.95
2018-11-03T05:55:59.465Z,33.04
2018-11-03T05:56:59.511Z,32.95
2018-11-03T05:57:59.449Z,32.93
2018-11-03T05:58:59.668Z,33.04
2018-11-03T05:59:59.464Z,33.04
2018-11-03T06:00:59.408Z,33.33
2018-11-03T06:01:59.416Z,32.85
2018-11-03T06:02:59.455Z,32.83
2018-11-03T06:03:59.393Z,32.93
2018-11-03T06:04:59.384Z,33.54
2018-11-03T06:06:00.035Z,33.04
2018-11-03T06:06:59.388Z,33.04
2018-11-03T06:07:59.392Z,33.75
2018-11-03T06:08:59.367Z,32.95
2018-11-03T06:09:59.315Z,33.35
2018-11-03T06:10:59.306Z,32.95
2018-11-03T06:11:59.300Z,33.04
2018-11-03T06:12:59.301Z,33.95
2018-11-03T06:13:59.272Z,32.95
2018-11-03T06:15:00.076Z,33.04
2018-11-03T06:15:59.285Z,32.95
2018-11-03T06:17:00.040Z,33.04
2018-11-03T06:17:59.595Z,33.04
2018-11-03T06:18:59.218Z,33.04
2018-11-03T06:20:00.047Z,32.75
2018-11-03T06:20:59.197Z,33.04
2018-11-03T06:21:59.188Z,33.84
2018-11-03T06:22:59.656Z,32.75
2018-11-03T06:23:59.167Z,32.95
2018-11-03T06:25:00.042Z,32.95
2018-11-03T06:25:59.146Z,33.75
2018-11-03T06:26:59.150Z,32.95
2018-11-03T06:27:59.238Z,32.75
2018-11-03T06:29:00.045Z,32.65
2018-11-03T06:29:59.100Z,32.95
2018-11-03T06:30:59.090Z,33.15
2018-11-03T06:32:00.055Z,33.04
2018-11-03T06:32:59.588Z,32.95
2018-11-03T06:33:59.120Z,33.04
2018-11-03T06:34:59.059Z,32.85
2018-11-03T06:35:59.042Z,33.54
2018-11-03T06:36:59.627Z,33.84
2018-11-03T06:37:59.052Z,33.04
2018-11-03T06:38:59.580Z,32.95
2018-11-03T06:39:58.989Z,32.75
2018-11-03T06:40:59.555Z,32.95
2018-11-03T06:41:58.968Z,33.15
2018-11-03T06:42:59.054Z,32.95
2018-11-03T06:43:58.943Z,32.95
2018-11-03T06:44:58.934Z,32.75
2018-11-03T06:45:58.962Z,33.04
2018-11-03T06:46:58.909Z,33.04
2018-11-03T06:47:58.978Z,32.95
2018-11-03T06:48:58.892Z,32.95
2018-11-03T06:49:59.540Z,32.75
2018-11-03T06:50:58.873Z,32.95
2018-11-03T06:51:58.923Z,32.95
2018-11-03T06:52:58.882Z,32.95
2018-11-03T06:53:59.537Z,32.95
2018-11-03T06:54:58.827Z,32.75
2018-11-03T06:55:58.812Z,33.25
2018-11-03T06:56:59.546Z,33.54
2018-11-03T06:57:58.826Z,34.05
2018-11-03T06:58:58.778Z,33.04
2018-11-03T06:59:58.766Z,33.04
2018-11-03T07:00:59.547Z,33.04
2018-11-03T07:01:58.754Z,33.04
2018-11-03T07:02:59.052Z,33.03
2018-11-03T07:03:58.739Z,33.95
2018-11-03T07:04:58.714Z,33.45
2018-11-03T07:05:58.706Z,33.25
2018-11-03T07:06:59.537Z,32.85
2018-11-03T07:07:58.712Z,33.04
2018-11-03T07:08:59.535Z,33.25
2018-11-03T07:09:58.661Z,33.35
2018-11-03T07:10:58.650Z,33.35
2018-11-03T07:11:58.718Z,33.25
2018-11-03T07:12:59.229Z,33.15
2018-11-03T07:13:58.622Z,33.03
2018-11-03T07:14:58.614Z,33.13
2018-11-03T07:15:58.601Z,32.93
2018-11-03T07:16:59.540Z,32.83
2018-11-03T07:17:59.052Z,32.83
2018-11-03T07:18:58.592Z,32.93
2018-11-03T07:19:58.549Z,32.93
2018-11-03T07:20:58.546Z,33.03
2018-11-03T07:21:58.533Z,33.33
2018-11-03T07:22:58.563Z,32.93
2018-11-03T07:23:58.509Z,32.93
2018-11-03T07:24:58.501Z,33.03
2018-11-03T07:25:58.488Z,33.03
2018-11-03T07:26:58.490Z,32.93
2018-11-03T07:27:58.568Z,33.33
2018-11-03T07:28:59.041Z,33.03
2018-11-03T07:29:58.452Z,32.93
2018-11-03T07:30:58.458Z,33.23
2018-11-03T07:31:59.039Z,33.43
2018-11-03T07:32:58.550Z,33.63
2018-11-03T07:33:59.041Z,33.33
2018-11-03T07:34:59.038Z,33.61
2018-11-03T07:35:58.390Z,33.61
2018-11-03T07:36:58.378Z,33.53
2018-11-03T07:37:58.384Z,33.51
2018-11-03T07:38:58.350Z,33.63
2018-11-03T07:39:58.331Z,33.12
2018-11-03T07:40:59.128Z,33.31
2018-11-03T07:41:58.311Z,33.33
2018-11-03T07:42:58.323Z,33.01
2018-11-03T07:43:58.293Z,33.22
2018-11-03T07:44:58.277Z,33.61
2018-11-03T07:45:59.052Z,33.81
2018-11-03T07:46:58.257Z,33.61
2018-11-03T07:47:58.410Z,33.61
2018-11-03T07:48:59.120Z,32.83
2018-11-03T07:49:58.258Z,33.53
2018-11-03T07:50:59.038Z,33.12
2018-11-03T07:51:58.204Z,33.22
2018-11-03T07:52:58.212Z,33.83
2018-11-03T07:53:58.194Z,32.63
2018-11-03T07:54:58.169Z,33.81
2018-11-03T07:55:58.157Z,33.31
2018-11-03T07:56:58.143Z,33.22
2018-11-03T07:57:58.147Z,33.61
2018-11-03T07:58:59.049Z,33.01
2018-11-03T07:59:58.112Z,33.31
2018-11-03T08:00:59.043Z,33.22
2018-11-03T08:01:58.110Z,33.53
2018-11-03T08:02:58.395Z,33.31
2018-11-03T08:03:58.082Z,33.42
2018-11-03T08:04:58.065Z,33.42
2018-11-03T08:05:58.050Z,33.61
2018-11-03T08:06:58.070Z,33.12
2018-11-03T08:07:58.033Z,33.73
2018-11-03T08:08:58.119Z,33.51
2018-11-03T08:09:58.571Z,32.93
2018-11-03T08:10:57.997Z,33.61
2018-11-03T08:11:58.001Z,33.33
2018-11-03T08:12:57.977Z,33.01
2018-11-03T08:13:57.998Z,33.03
2018-11-03T08:14:57.948Z,33.03
2018-11-03T08:15:57.932Z,33.03
2018-11-03T08:16:58.557Z,33.03
2018-11-03T08:17:57.911Z,32.93
2018-11-03T08:18:58.190Z,32.93
2018-11-03T08:19:57.918Z,32.93
2018-11-03T08:20:58.552Z,33.03
2018-11-03T08:21:57.891Z,33.01
2018-11-03T08:22:57.858Z,32.73
2018-11-03T08:23:58.114Z,32.93
2018-11-03T08:24:57.832Z,32.73
2018-11-03T08:25:57.824Z,33.03
2018-11-03T08:26:57.814Z,33.03
2018-11-03T08:27:57.805Z,32.93
2018-11-03T08:28:57.825Z,32.93
2018-11-03T08:29:57.814Z,32.93
2018-11-03T08:30:58.547Z,33.63
2018-11-03T08:31:57.758Z,33.23
2018-11-03T08:32:57.751Z,32.93
2018-11-03T08:33:57.773Z,33.33
2018-11-03T08:34:57.733Z,33.23
2018-11-03T08:35:57.721Z,32.93
2018-11-03T08:36:57.702Z,32.83
2018-11-03T08:37:57.689Z,33.33
2018-11-03T08:38:58.077Z,32.93
2018-11-03T08:39:57.673Z,33.33
2018-11-03T08:40:57.653Z,33.53
2018-11-03T08:41:57.651Z,32.93
2018-11-03T08:42:58.559Z,33.33
2018-11-03T08:43:58.073Z,33.03
2018-11-03T08:44:58.583Z,32.93
2018-11-03T08:45:57.603Z,33.23
2018-11-03T08:46:57.623Z,33.33
2018-11-03T08:47:57.646Z,32.93
2018-11-03T08:48:57.695Z,33.33
2018-11-03T08:49:57.614Z,33.33
2018-11-03T08:50:57.554Z,32.93
2018-11-03T08:51:57.530Z,33.33
2018-11-03T08:52:57.539Z,32.93
2018-11-03T08:53:57.535Z,33.33
2018-11-03T08:54:58.043Z,33.23
2018-11-03T08:55:57.492Z,33.33
2018-11-03T08:56:58.045Z,33.22
2018-11-03T08:57:57.468Z,32.93
2018-11-03T08:58:57.566Z,33.22
2018-11-03T08:59:57.518Z,32.93
2018-11-03T09:00:57.430Z,32.92
2018-11-03T09:01:57.448Z,33.01
2018-11-03T09:02:57.411Z,33.43
2018-11-03T09:03:57.430Z,33.03
2018-11-03T09:04:57.387Z,32.92
2018-11-03T09:05:57.372Z,32.93
2018-11-03T09:06:57.475Z,33.01
2018-11-03T09:07:58.042Z,32.92
2018-11-03T09:08:57.572Z,32.92
2018-11-03T09:09:57.364Z,32.92
2018-11-03T09:10:57.321Z,32.92
2018-11-03T09:11:57.307Z,33.01
2018-11-03T09:12:57.307Z,33.23
2018-11-03T09:13:57.557Z,33.22
2018-11-03T09:14:57.335Z,33.01
2018-11-03T09:15:58.046Z,33.22
2018-11-03T09:16:57.255Z,33.91
2018-11-03T09:17:57.240Z,33.61
2018-11-03T09:18:57.405Z,33.51
2018-11-03T09:19:57.290Z,33.51
2018-11-03T09:20:57.214Z,33.31
2018-11-03T09:21:57.391Z,33.51
2018-11-03T09:22:57.193Z,33.51
2018-11-03T09:23:57.196Z,33.31
2018-11-03T09:24:58.077Z,33.31
2018-11-03T09:25:58.046Z,33.42
2018-11-03T09:26:57.217Z,33.33
2018-11-03T09:27:58.047Z,33.42
2018-11-03T09:28:57.178Z,33.01
2018-11-03T09:29:57.108Z,33.33
2018-11-03T09:30:57.161Z,33.51
2018-11-03T09:31:58.103Z,33.31
2018-11-03T09:32:58.047Z,33.81
2018-11-03T09:33:57.559Z,32.92
2018-11-03T09:34:58.053Z,33.31
2018-11-03T09:35:57.059Z,33.31
2018-11-03T09:36:57.038Z,33.22
2018-11-03T09:37:57.021Z,33.72
2018-11-03T09:38:57.065Z,33.31
2018-11-03T09:39:56.996Z,33.31
2018-11-03T09:40:57.025Z,33.01
2018-11-03T09:41:56.973Z,33.91
2018-11-03T09:42:57.564Z,33.22
2018-11-03T09:43:56.967Z,33.31
2018-11-03T09:44:56.956Z,33.31
2018-11-03T09:45:57.558Z,33.51
2018-11-03T09:46:57.541Z,33.51
2018-11-03T09:47:57.542Z,33.51
2018-11-03T09:48:57.054Z,33.51
2018-11-03T09:49:56.891Z,33.01
2018-11-03T09:50:56.895Z,33.42
2018-11-03T09:51:56.859Z,33.12
2018-11-03T09:52:56.847Z,33.61
2018-11-03T09:53:56.852Z,33.01
2018-11-03T09:54:56.888Z,33.81
2018-11-03T09:55:56.832Z,32.92
2018-11-03T09:56:56.807Z,33.61
2018-11-03T09:57:56.810Z,33.12
2018-11-03T09:58:56.838Z,33.42
2018-11-03T09:59:57.542Z,33.81
2018-11-03T10:00:57.560Z,33.12
2018-11-03T10:01:56.752Z,33.31
2018-11-03T10:02:56.737Z,33.31
2018-11-03T10:03:56.750Z,33.31
2018-11-03T10:04:57.544Z,33.51
2018-11-03T10:05:56.748Z,33.12
2018-11-03T10:06:56.692Z,33.12
2018-11-03T10:07:56.681Z,33.12
2018-11-03T10:08:57.061Z,33.31
2018-11-03T10:09:56.674Z,33.31
2018-11-03T10:10:56.663Z,33.31
2018-11-03T10:11:57.555Z,33.12
2018-11-03T10:12:56.631Z,33.30
2018-11-03T10:13:57.065Z,33.12
2018-11-03T10:14:56.622Z,33.61
2018-11-03T10:15:56.798Z,33.12
2018-11-03T10:16:56.596Z,33.51
2018-11-03T10:17:56.591Z,33.31
2018-11-03T10:18:56.558Z,33.31
2018-11-03T10:19:56.593Z,33.50
2018-11-03T10:20:57.139Z,33.22
2018-11-03T10:21:57.147Z,33.00
2018-11-03T10:22:56.635Z,33.90
2018-11-03T10:23:57.050Z,33.30
2018-11-03T10:24:56.509Z,33.12
2018-11-03T10:25:56.481Z,33.30
2018-11-03T10:26:56.476Z,33.30
2018-11-03T10:27:56.465Z,33.50
2018-11-03T10:28:56.464Z,33.20
2018-11-03T10:29:56.456Z,33.30
2018-11-03T10:30:56.424Z,33.10
2018-11-03T10:31:56.459Z,33.30
2018-11-03T10:32:57.053Z,33.80
2018-11-03T10:33:56.398Z,33.22
2018-11-03T10:34:56.557Z,33.51
2018-11-03T10:35:56.371Z,33.61
2018-11-03T10:36:56.392Z,33.60
2018-11-03T10:37:56.371Z,33.50
2018-11-03T10:38:56.340Z,33.30
2018-11-03T10:39:56.609Z,33.60
2018-11-03T10:40:56.330Z,33.60
2018-11-03T10:41:56.357Z,33.50
2018-11-03T10:42:56.296Z,33.30
2018-11-03T10:43:56.283Z,33.91
2018-11-03T10:44:56.297Z,33.31
2018-11-03T10:45:57.047Z,33.60
2018-11-03T10:46:56.265Z,33.50
2018-11-03T10:47:56.241Z,33.30
2018-11-03T10:48:56.229Z,33.60
2018-11-03T10:49:56.234Z,33.60
2018-11-03T10:50:56.211Z,33.30
2018-11-03T10:51:56.479Z,33.60
2018-11-03T10:52:56.185Z,33.30
2018-11-03T10:53:56.183Z,33.90
2018-11-03T10:54:56.190Z,32.90
2018-11-03T10:55:56.158Z,33.30
2018-11-03T10:56:56.159Z,33.61
2018-11-03T10:57:56.141Z,32.92
2018-11-03T10:58:56.121Z,33.31
2018-11-03T10:59:56.128Z,34.00
2018-11-03T11:00:56.098Z,32.90
2018-11-03T11:01:56.131Z,33.30
2018-11-03T11:02:56.103Z,33.20
2018-11-03T11:03:56.101Z,32.92
2018-11-03T11:04:56.558Z,33.31
2018-11-03T11:05:56.044Z,33.00
2018-11-03T11:06:56.054Z,32.90
2018-11-03T11:07:56.031Z,32.90
2018-11-03T11:08:56.046Z,33.01
2018-11-03T11:09:56.022Z,33.00
2018-11-03T11:10:55.998Z,33.00
2018-11-03T11:11:56.053Z,33.00
2018-11-03T11:12:56.548Z,33.00
2018-11-03T11:13:55.988Z,33.01
2018-11-03T11:14:56.071Z,32.70
2018-11-03T11:15:56.063Z,32.80
2018-11-03T11:16:55.996Z,32.90
2018-11-03T11:17:55.929Z,32.70
2018-11-03T11:18:55.905Z,32.80
2018-11-03T11:19:55.956Z,32.82
2018-11-03T11:20:55.895Z,32.92
2018-11-03T11:21:56.553Z,32.90
2018-11-03T11:22:55.866Z,32.92
2018-11-03T11:23:55.912Z,32.90
2018-11-03T11:24:56.245Z,33.31
2018-11-03T11:25:55.842Z,32.92
2018-11-03T11:26:55.827Z,32.92
2018-11-03T11:27:56.551Z,32.92
2018-11-03T11:28:55.801Z,33.01
2018-11-03T11:29:55.802Z,32.90
2018-11-03T11:30:56.554Z,33.20
2018-11-03T11:31:55.776Z,32.90
2018-11-03T11:32:55.759Z,32.90
2018-11-03T11:33:55.741Z,32.90
2018-11-03T11:34:55.752Z,33.20
2018-11-03T11:35:55.724Z,33.30
2018-11-03T11:36:55.712Z,33.30
2018-11-03T11:37:55.700Z,33.31
2018-11-03T11:38:55.689Z,33.30
2018-11-03T11:39:56.105Z,33.30
2018-11-03T11:40:55.677Z,32.92
2018-11-03T11:41:55.655Z,32.82
2018-11-03T11:42:55.726Z,33.20
2018-11-03T11:43:55.640Z,32.92
2018-11-03T11:44:55.658Z,32.92
2018-11-03T11:45:55.616Z,32.80
2018-11-03T11:46:55.605Z,33.01
2018-11-03T11:47:55.631Z,33.40
2018-11-03T11:48:56.553Z,33.00
2018-11-03T11:49:55.610Z,33.30
2018-11-03T11:50:55.564Z,33.00
2018-11-03T11:51:55.546Z,33.20
2018-11-03T11:52:56.065Z,33.01
2018-11-03T11:53:55.527Z,33.42
2018-11-03T11:54:55.658Z,33.01
2018-11-03T11:55:55.505Z,33.00
2018-11-03T11:56:55.500Z,33.01
2018-11-03T11:57:55.481Z,33.01
2018-11-03T11:58:55.471Z,33.30
2018-11-03T11:59:55.494Z,32.90
2018-11-03T12:00:56.065Z,34.00
2018-11-03T12:01:56.055Z,33.00
2018-11-03T12:02:55.430Z,33.22
2018-11-03T12:03:55.421Z,33.01
2018-11-03T12:04:55.525Z,32.92
2018-11-03T12:05:56.050Z,33.01
2018-11-03T12:06:56.083Z,33.20
2018-11-03T12:07:55.372Z,32.90
2018-11-03T12:08:55.372Z,33.01
2018-11-03T12:09:55.419Z,33.00
2018-11-03T12:10:56.069Z,32.70
2018-11-03T12:11:55.353Z,33.20
2018-11-03T12:12:55.319Z,33.00
2018-11-03T12:13:55.318Z,32.71
2018-11-03T12:14:55.336Z,33.00
2018-11-03T12:15:55.292Z,32.70
2018-11-03T12:16:55.268Z,33.01
2018-11-03T12:17:56.054Z,32.71
2018-11-03T12:18:56.072Z,32.71
2018-11-03T12:19:55.239Z,32.90
2018-11-03T12:20:55.244Z,33.00
2018-11-03T12:21:55.222Z,33.20
2018-11-03T12:22:55.217Z,32.80
2018-11-03T12:23:55.206Z,32.92
2018-11-03T12:24:55.183Z,33.22
2018-11-03T12:25:55.200Z,33.22
2018-11-03T12:26:55.158Z,32.92
2018-11-03T12:27:55.149Z,32.90
2018-11-03T12:28:55.139Z,32.92
2018-11-03T12:29:55.144Z,33.00
2018-11-03T12:30:55.174Z,32.80
2018-11-03T12:31:55.103Z,32.92
2018-11-03T12:32:55.093Z,32.90
2018-11-03T12:33:55.087Z,33.20
2018-11-03T12:34:55.096Z,33.20
2018-11-03T12:35:55.097Z,33.20
2018-11-03T12:36:55.049Z,32.70
2018-11-03T12:37:55.038Z,32.90
2018-11-03T12:38:55.580Z,32.92
2018-11-03T12:39:55.018Z,32.92
2018-11-03T12:40:55.191Z,33.10
2018-11-03T12:41:55.015Z,32.80
2018-11-03T12:42:54.992Z,32.82
2018-11-03T12:43:54.995Z,32.62
2018-11-03T12:44:54.963Z,32.70
2018-11-03T12:45:54.976Z,32.90
2018-11-03T12:46:54.934Z,32.90
2018-11-03T12:47:54.972Z,32.92
2018-11-03T12:48:54.940Z,32.82
2018-11-03T12:49:55.553Z,33.01
2018-11-03T12:50:55.068Z,32.82
2018-11-03T12:51:54.880Z,33.01